Time;durP1;ratioP1;P1;durP2;ratioP2;P2;SDS_P1;SDS_P2;PMS_P1;PMS_P2;Temp;Humidity;BMP_temperature;BMP_pressure;BME280_temperature;BME280_humidity;BME280_pressure;Samples;Min_cycle;Max_cycle;Signal;HPM_P1;HPM_P2
2023/03/26 00:01:06;;;;;;;5.40;1.20;;;23.70;99.90;;;;;;5052240;28;20212;-72
2023/03/26 00:03:36;;;;;;;3.73;0.97;;;23.90;99.90;;;;;;5033958;28;20204;-72
2023/03/26 00:06:09;;;;;;;5.13;1.07;;;24.10;99.90;;;;;;5048799;28;20195;-72
2023/03/26 00:08:37;;;;;;;5.43;1.10;;;24.20;99.90;;;;;;5055569;28;20276;-71
2023/03/26 00:11:06;;;;;;;5.13;1.13;;;24.20;99.90;;;;;;5051198;28;20260;-72
2023/03/26 00:13:34;;;;;;;6.47;1.13;;;24.20;99.90;;;;;;5050967;28;20230;-73
2023/03/26 00:16:02;;;;;;;1.87;1.03;;;24.30;99.90;;;;;;5053769;28;20180;-72
2023/03/26 00:18:30;;;;;;;4.37;1.13;;;24.30;99.90;;;;;;5067927;28;20216;-72
2023/03/26 00:21:03;;;;;;;2.93;1.13;;;24.30;99.90;;;;;;5061323;28;20642;-72
2023/03/26 00:23:34;;;;;;;3.03;1.10;;;24.40;99.90;;;;;;5050948;28;20180;-71
2023/03/26 00:26:02;;;;;;;5.77;1.10;;;24.50;99.90;;;;;;5051372;28;20180;-73
2023/03/26 00:28:30;;;;;;;5.80;1.40;;;24.60;99.90;;;;;;5051182;28;20233;-72
2023/03/26 00:31:00;;;;;;;4.30;1.57;;;24.80;99.90;;;;;;5051215;28;20584;-71
2023/03/26 00:33:28;;;;;;;6.53;1.60;;;24.70;99.90;;;;;;5062807;28;20514;-71
2023/03/26 00:35:59;;;;;;;10.70;1.87;;;24.80;99.90;;;;;;5070570;28;20184;-71
2023/03/26 00:38:28;;;;;;;5.00;1.17;;;25.00;99.90;;;;;;5073739;28;20180;-72
2023/03/26 00:44:21;;;;;;;7.80;1.53;;;25.70;99.90;;;;;;5089730;28;20257;-73
2023/03/26 00:46:48;;;;;;;6.00;1.30;;;26.00;99.90;;;;;;5091506;28;20550;-73
2023/03/26 00:49:16;;;;;;;4.67;1.03;;;26.30;99.90;;;;;;5067566;28;20183;-72
2023/03/26 00:51:43;;;;;;;4.77;1.70;;;26.90;99.90;;;;;;5072494;28;20215;-72
2023/03/26 00:54:11;;;;;;;9.40;1.50;;;26.90;99.90;;;;;;5085526;28;20191;-72
2023/03/26 00:56:39;;;;;;;5.10;1.27;;;26.90;99.90;;;;;;5088703;28;20668;-72
2023/03/26 00:59:08;;;;;;;5.43;1.40;;;26.90;99.90;;;;;;5089874;28;20197;-72
2023/03/26 01:01:35;;;;;;;7.83;1.77;;;27.10;99.90;;;;;;5092325;28;20317;-72
2023/03/26 01:04:29;;;;;;;10.03;1.83;;;26.80;99.90;;;;;;5092056;28;20179;-72
2023/03/26 01:06:59;;;;;;;5.20;1.13;;;27.00;99.90;;;;;;5091499;28;20190;-72
2023/03/26 01:09:34;;;;;;;8.20;1.30;;;26.80;99.90;;;;;;5080896;28;20272;-72
2023/03/26 01:12:05;;;;;;;6.17;1.83;;;27.20;99.90;;;;;;5092045;28;20182;-73
2023/03/26 01:14:33;;;;;;;7.43;1.57;;;28.50;99.90;;;;;;5092456;28;20613;-72
2023/03/26 01:17:02;;;;;;;7.87;1.47;;;28.70;99.90;;;;;;5090198;28;20637;-72
2023/03/26 01:19:53;;;;;;;3.67;1.10;;;28.70;99.90;;;;;;5090321;28;20779;-72
2023/03/26 01:22:24;;;;;;;4.07;1.10;;;28.10;99.90;;;;;;5092310;28;20238;-72
2023/03/26 01:24:55;;;;;;;5.60;1.00;;;27.20;99.90;;;;;;5075847;28;20667;-72
2023/03/26 01:27:37;;;;;;;9.10;1.80;;;26.80;99.90;;;;;;5034930;28;20530;-72
2023/03/26 01:30:09;;;;;;;5.20;1.20;;;26.40;99.90;;;;;;5071876;28;20520;-72
2023/03/26 01:33:17;;;;;;;4.80;1.00;;;26.30;99.90;;;;;;5054978;28;20225;-72
2023/03/26 01:36:09;;;;;;;7.10;1.03;;;26.30;99.90;;;;;;5028052;28;20187;-73
2023/03/26 01:38:51;;;;;;;3.73;0.97;;;26.30;99.90;;;;;;5071561;28;20212;-73
2023/03/26 01:41:29;;;;;;;5.87;0.93;;;25.90;99.90;;;;;;5057427;28;20231;-73
2023/03/26 01:44:11;;;;;;;5.50;1.03;;;25.70;99.90;;;;;;5066500;28;20198;-73
2023/03/26 01:46:39;;;;;;;5.07;1.20;;;25.70;99.90;;;;;;5073713;28;20258;-73
2023/03/26 01:49:11;;;;;;;6.63;1.30;;;25.80;99.90;;;;;;5071266;28;20190;-72
2023/03/26 01:51:41;;;;;;;2.83;1.10;;;25.50;99.90;;;;;;5073763;28;20175;-73
2023/03/26 01:54:23;;;;;;;5.37;1.37;;;25.20;99.90;;;;;;5073728;28;20183;-73
2023/03/26 01:57:18;;;;;;;7.87;1.50;;;25.40;99.90;;;;;;5058021;28;20188;-72
2023/03/26 02:00:10;;;;;;;3.40;1.10;;;25.40;99.90;;;;;;5065651;28;20586;-72
2023/03/26 02:02:56;;;;;;;5.97;1.20;;;25.50;99.90;;;;;;5064572;28;20181;-72
2023/03/26 02:05:24;;;;;;;3.17;0.90;;;25.40;99.90;;;;;;5053135;28;20214;-72
2023/03/26 02:08:15;;;;;;;6.63;1.17;;;25.50;99.90;;;;;;5045613;28;20188;-72
2023/03/26 02:10:45;;;;;;;6.93;1.30;;;25.70;99.90;;;;;;5058145;28;20714;-72
2023/03/26 02:13:14;;;;;;;7.33;1.30;;;26.00;99.90;;;;;;5071142;28;20176;-72
2023/03/26 02:15:53;;;;;;;5.57;1.13;;;26.30;99.90;;;;;;5053270;28;20180;-72
2023/03/26 02:18:22;;;;;;;5.77;1.10;;;26.80;99.90;;;;;;5059346;28;20227;-72
2023/03/26 02:20:53;;;;;;;8.63;1.40;;;27.20;99.90;;;;;;5071754;28;20245;-72
2023/03/26 02:23:21;;;;;;;4.07;1.17;;;27.70;99.90;;;;;;5072942;28;20233;-72
2023/03/26 02:25:49;;;;;;;3.27;0.90;;;28.00;99.90;;;;;;5072468;28;20498;-71
2023/03/26 02:28:16;;;;;;;2.43;0.93;;;28.30;99.90;;;;;;5068990;28;20238;-72
2023/03/26 02:30:44;;;;;;;5.13;0.93;;;27.70;99.90;;;;;;5071465;28;20183;-71
2023/03/26 02:33:14;;;;;;;5.27;1.27;;;27.40;99.90;;;;;;5056557;28;20201;-72
2023/03/26 02:35:45;;;;;;;2.43;0.80;;;27.40;99.90;;;;;;5065047;28;20177;-73
2023/03/26 02:38:13;;;;;;;4.70;1.07;;;27.60;99.90;;;;;;5092017;28;20187;-72
2023/03/26 02:40:41;;;;;;;3.23;1.17;;;27.70;99.90;;;;;;5072437;28;20203;-71
2023/03/26 02:43:09;;;;;;;7.03;1.30;;;27.50;99.90;;;;;;5057577;28;20185;-72
2023/03/26 02:45:36;;;;;;;8.50;1.17;;;27.60;99.90;;;;;;5049285;28;20267;-72
2023/03/26 02:48:04;;;;;;;5.37;1.20;;;27.60;99.90;;;;;;5043982;28;20617;-72
2023/03/26 02:50:35;;;;;;;6.07;1.23;;;27.80;99.90;;;;;;5052007;28;20191;-73
2023/03/26 02:53:03;;;;;;;5.17;1.23;;;28.10;99.90;;;;;;5047321;28;20730;-72
2023/03/26 02:55:30;;;;;;;6.23;1.43;;;28.20;99.90;;;;;;5042350;28;20185;-71
2023/03/26 02:57:59;;;;;;;2.73;0.87;;;28.00;99.90;;;;;;5067594;28;20666;-73
2023/03/26 03:00:27;;;;;;;4.17;0.83;;;27.70;99.90;;;;;;5066194;28;20221;-72
2023/03/26 03:02:56;;;;;;;4.27;0.80;;;27.20;99.90;;;;;;5051870;28;20205;-72
2023/03/26 03:05:27;;;;;;;3.97;0.80;;;26.80;99.90;;;;;;5048883;28;20188;-73
2023/03/26 03:07:56;;;;;;;3.43;1.03;;;26.60;99.90;;;;;;5052480;28;20183;-73
2023/03/26 03:10:26;;;;;;;3.77;1.00;;;26.80;99.90;;;;;;5071050;28;20622;-73
2023/03/26 03:12:54;;;;;;;4.43;1.10;;;26.90;99.90;;;;;;5071479;28;20182;-73
2023/03/26 03:15:22;;;;;;;5.77;1.47;;;26.90;99.90;;;;;;5054626;28;20184;-73
2023/03/26 03:17:49;;;;;;;2.73;1.00;;;27.00;99.90;;;;;;5050561;28;20287;-72
2023/03/26 03:20:17;;;;;;;5.27;1.13;;;26.70;99.90;;;;;;5051400;28;20222;-73
2023/03/26 03:22:44;;;;;;;4.73;1.03;;;26.60;99.90;;;;;;5054251;28;20665;-73
2023/03/26 03:25:16;;;;;;;6.50;1.13;;;26.60;99.90;;;;;;5071273;28;20534;-73
2023/03/26 03:27:44;;;;;;;4.90;1.00;;;26.50;99.90;;;;;;5071940;28;20180;-74
2023/03/26 03:30:12;;;;;;;4.63;1.23;;;26.40;99.90;;;;;;5061736;28;20543;-73
2023/03/26 03:32:40;;;;;;;5.27;1.10;;;26.30;99.90;;;;;;5051415;28;20203;-72
2023/03/26 03:35:08;;;;;;;5.30;1.40;;;26.10;99.90;;;;;;5051480;28;20192;-73
2023/03/26 03:37:35;;;;;;;6.93;1.20;;;26.10;99.90;;;;;;5051653;28;20596;-73
2023/03/26 03:40:06;;;;;;;5.80;1.10;;;26.10;99.90;;;;;;5051117;28;20219;-72
2023/03/26 03:42:33;;;;;;;6.53;1.63;;;26.20;99.90;;;;;;5063385;28;20190;-72
2023/03/26 03:45:01;;;;;;;5.53;1.30;;;26.30;99.90;;;;;;5071428;28;20515;-73
2023/03/26 03:47:28;;;;;;;3.37;0.90;;;25.90;99.90;;;;;;5066518;28;20185;-73
2023/03/26 03:49:58;;;;;;;6.50;1.10;;;25.50;99.90;;;;;;5051432;28;20653;-73
2023/03/26 03:52:27;;;;;;;3.83;1.30;;;25.30;99.90;;;;;;5061728;28;20273;-73
2023/03/26 03:55:00;;;;;;;5.90;1.00;;;25.30;99.90;;;;;;5069473;28;20256;-73
2023/03/26 03:57:30;;;;;;;3.43;0.80;;;25.20;99.90;;;;;;5031586;28;20643;-72
2023/03/26 03:59:57;;;;;;;3.27;1.00;;;25.20;99.90;;;;;;5031486;28;20188;-72
2023/03/26 04:02:28;;;;;;;2.60;1.10;;;25.20;99.90;;;;;;5031150;28;20197;-72
2023/03/26 04:04:59;;;;;;;3.50;1.00;;;25.20;99.90;;;;;;5031234;28;20181;-73
2023/03/26 04:07:30;;;;;;;8.97;1.17;;;25.20;99.90;;;;;;5031413;28;20189;-74
2023/03/26 04:10:01;;;;;;;3.70;1.23;;;25.40;99.90;;;;;;5044961;28;20676;-73
2023/03/26 04:12:29;;;;;;;5.37;0.90;;;25.40;99.90;;;;;;5068554;28;20189;-73
2023/03/26 04:14:58;;;;;;;6.73;1.20;;;25.40;99.90;;;;;;5035184;28;20216;-73
2023/03/26 04:17:26;;;;;;;6.67;1.33;;;25.50;99.90;;;;;;5050377;28;20239;-74
2023/03/26 04:19:53;;;;;;;4.07;1.07;;;25.70;99.90;;;;;;5055069;28;20224;-73
2023/03/26 04:22:22;;;;;;;5.07;0.90;;;25.70;99.90;;;;;;5055298;28;20230;-73
2023/03/26 04:24:53;;;;;;;3.43;1.30;;;25.50;99.90;;;;;;5058550;28;20180;-73
2023/03/26 04:27:27;;;;;;;4.73;1.40;;;25.40;99.90;;;;;;5073959;28;20188;-73
2023/03/26 04:29:57;;;;;;;3.03;0.90;;;25.50;99.90;;;;;;5075024;28;20186;-74
2023/03/26 04:32:32;;;;;;;6.80;1.07;;;25.50;99.90;;;;;;5063953;28;20191;-73
2023/03/26 04:35:02;;;;;;;5.97;0.87;;;25.40;99.90;;;;;;5054902;28;20191;-73
2023/03/26 04:37:33;;;;;;;7.47;1.23;;;25.40;99.90;;;;;;5054677;28;20195;-73
2023/03/26 04:40:09;;;;;;;5.10;1.13;;;25.40;99.90;;;;;;5054504;28;20191;-74
2023/03/26 04:42:44;;;;;;;3.97;1.10;;;25.40;99.90;;;;;;5054921;28;20183;-73
2023/03/26 04:45:14;;;;;;;1.97;1.10;;;25.50;99.90;;;;;;5054165;28;20771;-74
2023/03/26 04:47:41;;;;;;;3.60;1.00;;;25.50;99.90;;;;;;5054860;28;20268;-74
2023/03/26 04:50:10;;;;;;;13.63;1.67;;;25.40;99.90;;;;;;5054615;28;20204;-71
2023/03/26 04:52:38;;;;;;;6.43;1.20;;;25.30;99.90;;;;;;5054270;28;20222;-74
2023/03/26 04:55:19;;;;;;;5.67;1.40;;;25.20;99.90;;;;;;5054730;28;20176;-74
2023/03/26 04:57:49;;;;;;;12.37;1.10;;;25.20;99.90;;;;;;5053410;28;20192;-73
2023/03/26 05:00:20;;;;;;;7.73;1.30;;;25.20;99.90;;;;;;5053825;28;20247;-71
2023/03/26 05:02:54;;;;;;;5.57;1.30;;;25.10;99.90;;;;;;5054388;28;20684;-72
2023/03/26 05:05:22;;;;;;;5.00;1.10;;;25.20;99.90;;;;;;5054176;28;20649;-73
2023/03/26 05:07:49;;;;;;;6.63;1.40;;;25.20;99.90;;;;;;5053775;28;20653;-73
2023/03/26 05:10:19;;;;;;;3.20;1.33;;;25.40;99.90;;;;;;5053128;28;20207;-73
2023/03/26 05:12:46;;;;;;;6.50;1.27;;;25.40;99.90;;;;;;5038969;28;20185;-72
2023/03/26 05:15:15;;;;;;;6.07;1.30;;;25.40;99.90;;;;;;5033904;28;20185;-72
2023/03/26 05:17:43;;;;;;;5.17;1.40;;;25.40;99.90;;;;;;5051749;28;20719;-72
2023/03/26 05:20:30;;;;;;;5.53;1.90;;;25.30;99.90;;;;;;5068625;28;20261;-71
2023/03/26 05:22:57;;;;;;;4.80;1.50;;;25.30;99.90;;;;;;5070523;28;20179;-72
2023/03/26 05:25:24;;;;;;;6.00;1.60;;;25.30;99.90;;;;;;5071667;28;20199;-72
2023/03/26 05:27:52;;;;;;;8.23;1.50;;;25.20;99.90;;;;;;5070775;28;20184;-72
2023/03/26 05:30:21;;;;;;;5.90;1.53;;;25.10;99.90;;;;;;5073449;28;20180;-72
2023/03/26 05:32:50;;;;;;;7.07;1.83;;;25.00;99.90;;;;;;5073786;28;20188;-73
2023/03/26 05:35:18;;;;;;;6.57;1.30;;;24.90;99.90;;;;;;5071230;28;20219;-72
2023/03/26 05:37:46;;;;;;;4.00;1.33;;;24.80;99.90;;;;;;5073401;28;20176;-72
2023/03/26 05:40:15;;;;;;;9.53;1.83;;;24.80;99.90;;;;;;5054438;28;20220;-74
2023/03/26 05:42:44;;;;;;;4.53;2.03;;;24.90;99.90;;;;;;5045198;28;20324;-73
2023/03/26 05:45:13;;;;;;;4.70;1.60;;;25.00;99.90;;;;;;5050108;28;20676;-74
2023/03/26 05:47:41;;;;;;;6.60;1.60;;;25.00;99.90;;;;;;5079839;28;20287;-73
2023/03/26 05:50:10;;;;;;;6.07;1.37;;;25.00;99.90;;;;;;5060624;28;20699;-72
2023/03/26 05:52:38;;;;;;;5.87;1.47;;;25.00;99.90;;;;;;5053247;28;20199;-72
2023/03/26 05:55:06;;;;;;;4.97;1.30;;;24.90;99.90;;;;;;5053218;28;20187;-72
2023/03/26 05:57:35;;;;;;;9.43;1.77;;;24.80;99.90;;;;;;5053493;28;20295;-73
2023/03/26 06:00:04;;;;;;;8.20;1.73;;;24.70;99.90;;;;;;5058836;28;20278;-73
2023/03/26 06:02:32;;;;;;;6.37;1.40;;;24.60;99.90;;;;;;5061491;28;20266;-72
2023/03/26 06:05:00;;;;;;;4.37;1.47;;;24.60;99.90;;;;;;5053299;28;20177;-74
2023/03/26 06:07:27;;;;;;;3.90;1.03;;;24.50;99.90;;;;;;5041251;28;20204;-74
2023/03/26 06:09:55;;;;;;;7.27;1.47;;;24.60;99.90;;;;;;5045492;28;20183;-73
2023/03/26 06:12:22;;;;;;;4.23;1.30;;;24.60;99.90;;;;;;5073472;28;20229;-74
2023/03/26 06:14:50;;;;;;;5.10;1.20;;;24.70;99.90;;;;;;5072821;28;20176;-73
2023/03/26 06:17:17;;;;;;;7.83;1.97;;;24.80;99.90;;;;;;5073385;28;20176;-74
2023/03/26 06:19:46;;;;;;;5.70;1.33;;;24.80;99.90;;;;;;5057877;28;20262;-74
2023/03/26 06:22:14;;;;;;;8.17;1.70;;;24.90;99.90;;;;;;5059215;28;20220;-73
2023/03/26 06:24:41;;;;;;;4.00;1.30;;;24.80;99.90;;;;;;5056912;28;20188;-74
2023/03/26 06:27:09;;;;;;;8.23;1.33;;;24.80;99.90;;;;;;5070824;28;20266;-73
2023/03/26 06:29:36;;;;;;;10.73;1.33;;;24.70;99.90;;;;;;5072584;28;20711;-74
2023/03/26 06:32:04;;;;;;;7.87;1.63;;;24.60;99.90;;;;;;5059343;28;20194;-72
2023/03/26 06:34:31;;;;;;;3.67;1.10;;;24.50;99.90;;;;;;5068755;28;20180;-73
2023/03/26 06:36:58;;;;;;;5.33;1.10;;;24.40;99.90;;;;;;5072291;28;20656;-73
2023/03/26 06:39:26;;;;;;;6.90;1.40;;;24.40;99.90;;;;;;5065194;28;20187;-73
2023/03/26 06:41:54;;;;;;;5.60;1.53;;;24.30;99.90;;;;;;5052625;28;20216;-73
2023/03/26 06:44:21;;;;;;;3.40;0.90;;;24.30;99.90;;;;;;5050649;28;20524;-73
2023/03/26 06:46:49;;;;;;;4.93;1.33;;;24.30;99.90;;;;;;5052349;28;20177;-72
2023/03/26 06:49:16;;;;;;;4.33;1.03;;;24.20;99.90;;;;;;5052228;28;20172;-73
2023/03/26 06:51:45;;;;;;;5.53;1.23;;;24.20;99.90;;;;;;5051522;28;20188;-73
2023/03/26 06:54:13;;;;;;;5.93;1.20;;;24.20;99.90;;;;;;5060618;28;20184;-73
2023/03/26 06:56:40;;;;;;;8.43;1.30;;;24.30;99.90;;;;;;5064814;28;20193;-73
2023/03/26 06:59:07;;;;;;;9.07;2.23;;;24.50;99.90;;;;;;5051388;28;20196;-73
2023/03/26 07:01:35;;;;;;;7.50;1.50;;;24.50;99.90;;;;;;5035751;28;20520;-73
2023/03/26 07:04:02;;;;;;;9.50;1.30;;;24.60;99.90;;;;;;5052064;28;20180;-73
2023/03/26 07:06:30;;;;;;;5.80;1.30;;;24.60;99.90;;;;;;5051812;28;20180;-74
2023/03/26 07:08:57;;;;;;;6.80;1.30;;;24.50;99.90;;;;;;5052203;28;20180;-72
2023/03/26 07:11:25;;;;;;;5.00;1.30;;;24.40;99.90;;;;;;5033028;28;20589;-73
2023/03/26 07:13:55;;;;;;;5.93;1.40;;;24.40;99.90;;;;;;5031935;28;20315;-74
2023/03/26 07:16:22;;;;;;;7.90;1.30;;;24.20;99.90;;;;;;5032352;28;20270;-73
2023/03/26 07:18:50;;;;;;;5.97;1.80;;;24.10;99.90;;;;;;5032036;28;20232;-73
2023/03/26 07:21:18;;;;;;;5.17;1.60;;;24.00;99.90;;;;;;5049510;28;20224;-73
2023/03/26 07:23:46;;;;;;;6.90;1.13;;;23.90;99.90;;;;;;5056762;28;20176;-73
2023/03/26 07:26:29;;;;;;;5.67;1.40;;;23.80;99.90;;;;;;5072033;28;20188;-73
2023/03/26 07:29:30;;;;;;;6.17;1.03;;;23.70;99.90;;;;;;5068253;28;20203;-73
2023/03/26 07:32:27;;;;;;;7.80;1.60;;;23.70;99.90;;;;;;5062408;28;20194;-73
2023/03/26 07:35:03;;;;;;;11.80;1.67;;;23.70;99.90;;;;;;5066330;28;20191;-73
2023/03/26 07:38:05;;;;;;;5.63;1.40;;;23.60;99.90;;;;;;5068775;28;20183;-74
2023/03/26 07:40:50;;;;;;;8.23;1.50;;;23.50;99.90;;;;;;5050371;28;20258;-74
2023/03/26 07:43:57;;;;;;;7.83;1.83;;;23.50;99.90;;;;;;5031493;28;20621;-73
2023/03/26 07:46:36;;;;;;;7.53;1.40;;;23.40;99.90;;;;;;5034063;28;20180;-73
2023/03/26 07:49:04;;;;;;;7.83;1.40;;;23.40;99.90;;;;;;5066475;28;20187;-73
2023/03/26 07:51:32;;;;;;;6.57;1.73;;;23.40;99.90;;;;;;5070137;28;20210;-74
2023/03/26 07:54:02;;;;;;;6.43;1.40;;;23.30;99.90;;;;;;5071669;28;20250;-74
2023/03/26 07:56:35;;;;;;;8.53;1.40;;;23.30;99.90;;;;;;5070379;28;20184;-74
2023/03/26 07:59:10;;;;;;;8.40;2.03;;;23.20;99.90;;;;;;5056221;28;20188;-74
2023/03/26 08:02:23;;;;;;;6.93;1.67;;;23.20;99.90;;;;;;5050921;28;20226;-75
2023/03/26 08:05:18;;;;;;;4.53;1.27;;;23.10;99.90;;;;;;5051282;28;20189;-74
2023/03/26 08:07:58;;;;;;;7.37;1.50;;;23.20;99.90;;;;;;5040042;28;20238;-73
2023/03/26 08:10:52;;;;;;;8.37;1.70;;;23.20;99.90;;;;;;5032737;28;20691;-74
2023/03/26 08:13:31;;;;;;;4.03;1.40;;;23.20;99.90;;;;;;5032702;28;20212;-73
2023/03/26 08:16:24;;;;;;;8.90;1.50;;;23.20;99.90;;;;;;5033044;28;20180;-73
2023/03/26 08:18:55;;;;;;;5.73;1.47;;;23.20;99.90;;;;;;5032730;28;20315;-74
2023/03/26 08:21:26;;;;;;;5.00;1.40;;;23.20;99.90;;;;;;5032915;28;20300;-73
2023/03/26 08:24:15;;;;;;;8.17;1.27;;;23.20;99.90;;;;;;5041840;28;20187;-73
2023/03/26 08:27:07;;;;;;;8.53;1.30;;;23.20;99.90;;;;;;5045838;28;20282;-73
2023/03/26 08:29:57;;;;;;;5.03;1.53;;;23.20;99.90;;;;;;5072554;28;20175;-74
2023/03/26 08:32:24;;;;;;;7.47;1.50;;;23.10;99.90;;;;;;5040588;28;20188;-74
2023/03/26 08:34:52;;;;;;;5.47;1.10;;;23.10;99.90;;;;;;5054364;28;20188;-74
2023/03/26 08:37:19;;;;;;;6.33;1.30;;;23.10;99.90;;;;;;5058691;28;20231;-73
2023/03/26 08:39:47;;;;;;;5.67;1.07;;;23.20;99.90;;;;;;5033157;28;20272;-73
2023/03/26 08:42:20;;;;;;;5.93;1.43;;;23.10;99.90;;;;;;5047898;28;20221;-74
2023/03/26 08:45:18;;;;;;;7.43;1.63;;;23.10;99.90;;;;;;5047924;28;20181;-73
2023/03/26 08:48:07;;;;;;;7.37;1.57;;;23.20;99.90;;;;;;5032634;28;20229;-73
2023/03/26 08:50:46;;;;;;;8.67;1.50;;;23.10;99.90;;;;;;5047220;28;20191;-72
2023/03/26 08:53:20;;;;;;;6.87;1.53;;;23.10;99.90;;;;;;5033071;28;20184;-73
2023/03/26 08:56:19;;;;;;;9.73;1.90;;;23.10;99.90;;;;;;5032385;28;20685;-73
2023/03/26 08:58:52;;;;;;;5.53;1.43;;;22.90;99.90;;;;;;5035791;28;22179;-73
2023/03/26 09:01:54;;;;;;;6.63;1.70;;;23.00;99.90;;;;;;5036033;28;20212;-73
2023/03/26 09:05:00;;;;;;;11.00;2.33;;;23.00;99.90;;;;;;5034809;28;20239;-73
2023/03/26 09:07:52;;;;;;;13.63;2.13;;;23.00;99.90;;;;;;5035299;28;20287;-73
2023/03/26 09:10:46;;;;;;;13.30;1.90;;;23.00;99.90;;;;;;5036335;28;20250;-73
2023/03/26 09:13:32;;;;;;;9.90;1.80;;;22.80;99.90;;;;;;5035955;28;20174;-73
2023/03/26 09:16:21;;;;;;;10.47;2.17;;;22.70;99.90;;;;;;5035915;28;20576;-73
2023/03/26 09:18:52;;;;;;;5.07;1.33;;;22.60;99.90;;;;;;5035471;28;20320;-74
2023/03/26 09:22:12;;;;;;;11.33;2.60;;;22.60;99.90;;;;;;5035981;28;20210;-73
2023/03/26 09:24:55;;;;;;;5.47;1.40;;;22.40;99.90;;;;;;5023521;28;20196;-73
2023/03/26 09:27:39;;;;;;;7.23;1.50;;;22.30;99.90;;;;;;5035755;28;20208;-73
2023/03/26 09:30:19;;;;;;;9.77;1.70;;;22.20;99.90;;;;;;5035477;28;20177;-73
2023/03/26 09:33:20;;;;;;;9.67;1.77;;;22.10;99.90;;;;;;5035478;28;20588;-73
2023/03/26 09:36:18;;;;;;;13.93;2.03;;;21.90;99.90;;;;;;5035321;28;20223;-74
2023/03/26 09:39:02;;;;;;;6.80;2.40;;;21.80;99.90;;;;;;5035447;28;20177;-74
2023/03/26 09:41:43;;;;;;;8.73;2.10;;;21.70;99.90;;;;;;5034127;28;20240;-73
2023/03/26 09:44:20;;;;;;;8.47;1.83;;;21.70;99.90;;;;;;5035121;28;20663;-73
2023/03/26 09:47:05;;;;;;;7.80;1.93;;;21.60;99.90;;;;;;5035528;28;20191;-74
2023/03/26 09:50:09;;;;;;;9.10;2.87;;;21.50;99.90;;;;;;5035336;28;20252;-73
2023/03/26 09:53:13;;;;;;;5.93;2.20;;;21.40;99.90;;;;;;5040861;28;20270;-73
2023/03/26 09:56:05;;;;;;;5.90;1.83;;;21.30;99.90;;;;;;5071775;28;20195;-73
2023/03/26 09:58:51;;;;;;;5.27;1.60;;;21.20;99.90;;;;;;5055963;28;20180;-74
2023/03/26 10:01:43;;;;;;;6.00;1.83;;;21.20;99.90;;;;;;5074520;28;20330;-74
2023/03/26 10:04:39;;;;;;;4.63;1.70;;;21.00;99.90;;;;;;5046081;28;20196;-74
2023/03/26 10:07:25;;;;;;;9.43;1.80;;;21.00;99.90;;;;;;5073299;28;20751;-74
2023/03/26 10:10:02;;;;;;;9.87;2.23;;;21.00;99.90;;;;;;5073522;28;20222;-74
2023/03/26 10:12:43;;;;;;;9.57;2.10;;;20.90;99.90;;;;;;5072229;28;20175;-74
2023/03/26 10:15:34;;;;;;;6.80;1.60;;;20.90;99.90;;;;;;5072828;28;20274;-74
2023/03/26 10:18:07;;;;;;;4.90;1.57;;;20.80;99.90;;;;;;5073725;28;20191;-74
2023/03/26 10:20:44;;;;;;;9.43;2.37;;;20.80;99.90;;;;;;5070033;28;20241;-74
2023/03/26 10:23:37;;;;;;;9.17;2.23;;;20.80;99.90;;;;;;5064436;28;20290;-74
2023/03/26 10:26:10;;;;;;;5.53;2.40;;;20.80;99.90;;;;;;5033858;28;20268;-74
2023/03/26 10:28:58;;;;;;;9.57;2.40;;;20.80;99.90;;;;;;5034140;28;20183;-74
2023/03/26 10:31:35;;;;;;;10.63;2.67;;;20.80;99.90;;;;;;5036874;28;20322;-74
2023/03/26 10:34:31;;;;;;;10.87;2.17;;;20.80;99.90;;;;;;5051835;28;20210;-74
2023/03/26 10:37:10;;;;;;;9.10;2.20;;;20.90;99.90;;;;;;5070111;28;20188;-74
2023/03/26 10:40:05;;;;;;;8.70;2.27;;;20.90;99.90;;;;;;5072533;28;20196;-74
2023/03/26 10:42:39;;;;;;;8.97;2.03;;;20.90;99.90;;;;;;5067828;28;20286;-73
2023/03/26 10:45:26;;;;;;;8.73;2.57;;;20.90;99.90;;;;;;5051601;28;20191;-75
2023/03/26 10:48:24;;;;;;;6.37;1.87;;;20.90;99.90;;;;;;5059323;28;20202;-74
2023/03/26 10:51:05;;;;;;;7.17;2.10;;;21.00;99.90;;;;;;5073368;28;20752;-73
2023/03/26 10:56:56;;;;;;;10.40;2.00;;;20.90;99.90;;;;;;5069982;28;20191;-74
2023/03/26 10:59:26;;;;;;;7.63;1.70;;;20.90;99.90;;;;;;5070895;28;20554;-74
2023/03/26 11:02:18;;;;;;;8.97;2.20;;;20.80;99.90;;;;;;5062587;28;20251;-74
2023/03/26 11:05:00;;;;;;;6.53;1.70;;;20.80;99.90;;;;;;5038098;28;20185;-74
2023/03/26 11:07:39;;;;;;;6.27;1.53;;;20.80;99.90;;;;;;5038812;28;20613;-74
2023/03/26 11:10:21;;;;;;;10.30;2.10;;;20.80;99.90;;;;;;5038502;28;20189;-74
2023/03/26 11:13:38;;;;;;;10.63;1.90;;;20.80;99.90;;;;;;5043096;28;20187;-74
2023/03/26 11:16:16;;;;;;;10.77;2.03;;;20.70;99.90;;;;;;5060184;28;20199;-74
2023/03/26 11:18:48;;;;;;;4.60;1.30;;;20.70;99.90;;;;;;5068288;28;20235;-74
2023/03/26 11:21:36;;;;;;;7.20;1.70;;;20.70;99.90;;;;;;5072068;28;20215;-74
2023/03/26 11:24:21;;;;;;;6.33;2.33;;;20.70;99.90;;;;;;5070781;28;20203;-74
2023/03/26 11:26:58;;;;;;;10.63;2.17;;;20.70;99.90;;;;;;5052473;28;20223;-75
2023/03/26 11:29:46;;;;;;;6.50;1.60;;;20.70;99.90;;;;;;5047488;28;20579;-74
2023/03/26 11:32:26;;;;;;;6.40;1.40;;;20.70;99.90;;;;;;5032967;28;20580;-74
2023/03/26 11:35:00;;;;;;;6.87;1.40;;;20.70;99.90;;;;;;5032399;28;20186;-74
2023/03/26 11:37:34;;;;;;;5.57;1.60;;;20.70;99.90;;;;;;5052990;28;20184;-74
2023/03/26 11:40:06;;;;;;;8.53;1.60;;;20.80;99.90;;;;;;5052496;28;20184;-74
2023/03/26 11:42:34;;;;;;;7.43;2.00;;;20.80;99.90;;;;;;5071384;28;20187;-74
2023/03/26 11:45:24;;;;;;;7.80;1.80;;;20.80;99.90;;;;;;5070278;28;20183;-74
2023/03/26 11:48:26;;;;;;;7.97;2.13;;;20.80;99.90;;;;;;5071568;28;20194;-74
2023/03/26 11:51:00;;;;;;;7.27;1.73;;;20.80;99.90;;;;;;5067499;28;20209;-74
2023/03/26 11:53:33;;;;;;;7.83;2.30;;;20.80;99.90;;;;;;5072645;28;20638;-73
2023/03/26 11:56:30;;;;;;;11.17;2.00;;;20.70;99.90;;;;;;5071384;28;20695;-73
2023/03/26 11:59:23;;;;;;;13.20;2.30;;;20.70;99.90;;;;;;5069853;28;20241;-74
2023/03/26 12:01:51;;;;;;;8.37;2.20;;;20.70;99.90;;;;;;5070778;28;20309;-74
2023/03/26 12:04:33;;;;;;;6.70;2.00;;;20.70;99.90;;;;;;5064219;28;20271;-73
2023/03/26 12:07:32;;;;;;;6.50;2.00;;;20.70;99.90;;;;;;5068864;28;20223;-74
2023/03/26 12:10:36;;;;;;;9.03;1.67;;;20.70;99.90;;;;;;5072461;28;20190;-74
2023/03/26 12:13:22;;;;;;;8.67;2.10;;;20.70;99.90;;;;;;5067099;28;20266;-74
2023/03/26 12:15:50;;;;;;;5.37;1.40;;;20.80;99.90;;;;;;5072098;28;20183;-73
2023/03/26 12:18:26;;;;;;;5.93;1.47;;;20.90;99.90;;;;;;5052810;28;20217;-74
2023/03/26 12:21:09;;;;;;;11.10;2.10;;;21.00;99.90;;;;;;5043649;28;20269;-74
2023/03/26 12:24:23;;;;;;;5.63;1.67;;;21.00;99.90;;;;;;5052043;28;20263;-74
2023/03/26 12:27:01;;;;;;;9.60;1.90;;;21.20;99.90;;;;;;5054614;28;20194;-74
2023/03/26 12:29:33;;;;;;;7.70;1.97;;;21.30;99.90;;;;;;5072118;28;20178;-73
2023/03/26 12:32:13;;;;;;;5.53;1.70;;;21.30;99.90;;;;;;5069828;28;20184;-74
2023/03/26 12:34:42;;;;;;;9.83;1.90;;;21.30;99.90;;;;;;5059259;28;20645;-74
2023/03/26 12:37:46;;;;;;;17.23;2.43;;;21.30;99.90;;;;;;5075934;28;20253;-74
2023/03/26 12:40:33;;;;;;;9.77;1.70;;;21.40;99.90;;;;;;5074651;28;20187;-74
2023/03/26 12:43:04;;;;;;;10.90;1.90;;;21.40;99.90;;;;;;5073593;28;20189;-74
2023/03/26 12:45:39;;;;;;;11.20;2.47;;;21.50;99.90;;;;;;5075903;28;20176;-74
2023/03/26 12:48:12;;;;;;;12.10;2.47;;;21.40;99.90;;;;;;5075737;28;20641;-74
2023/03/26 12:50:58;;;;;;;13.77;2.33;;;21.40;99.90;;;;;;5074342;28;20255;-74
2023/03/26 12:53:32;;;;;;;14.13;2.67;;;21.30;99.90;;;;;;5074462;28;20187;-73
2023/03/26 12:56:02;;;;;;;8.60;1.90;;;21.20;99.90;;;;;;5075471;28;20183;-73
2023/03/26 12:58:56;;;;;;;7.70;2.10;;;21.30;99.90;;;;;;5075842;28;20176;-73
2023/03/26 13:01:54;;;;;;;7.70;1.83;;;21.30;99.90;;;;;;5072209;28;20264;-73
2023/03/26 13:04:33;;;;;;;6.93;1.70;;;21.20;99.90;;;;;;5075072;28;20546;-74
2023/03/26 13:07:41;;;;;;;7.80;1.90;;;21.30;99.90;;;;;;5073610;28;20186;-73
2023/03/26 13:10:53;;;;;;;6.90;1.77;;;21.20;99.90;;;;;;5040782;28;20661;-73
2023/03/26 13:13:44;;;;;;;9.70;2.03;;;21.10;99.90;;;;;;5055313;28;20169;-73
2023/03/26 13:16:56;;;;;;;10.17;1.73;;;21.10;99.90;;;;;;5055302;28;20187;-73
2023/03/26 13:19:42;;;;;;;11.57;1.53;;;21.00;99.90;;;;;;5052616;28;20235;-74
2023/03/26 13:22:34;;;;;;;8.13;1.93;;;20.90;99.90;;;;;;5052756;28;20761;-73
2023/03/26 13:25:20;;;;;;;10.67;1.93;;;21.00;99.90;;;;;;5055034;28;20233;-74
2023/03/26 13:28:31;;;;;;;11.17;2.10;;;21.00;99.90;;;;;;5054939;28;20175;-73
2023/03/26 13:31:30;;;;;;;8.50;1.50;;;20.90;99.90;;;;;;5062520;28;20214;-73
2023/03/26 13:34:08;;;;;;;10.27;2.30;;;20.80;99.90;;;;;;5062177;28;20200;-73
2023/03/26 13:36:54;;;;;;;5.17;1.83;;;20.80;99.90;;;;;;5074788;28;20176;-74
2023/03/26 13:39:48;;;;;;;8.27;1.67;;;20.70;99.90;;;;;;5074919;28;20531;-73
2023/03/26 13:42:45;;;;;;;6.07;1.97;;;20.60;99.90;;;;;;5072480;28;20264;-74